Terminal Aerodrome Forecast
Issued by NWS

Home | Current Version | Previous Version | Text Only | Print | Product List | Glossary On
Versions: 1 2 3 4 5 6 7 8 9 10 11 12 13 14 15 16
592
FTAK31 PAJN 260721 AAA
TAFAKT
TAF AMD
PAKT 260721Z 2607/2706 16007KT P6SM -SHRA SCT015 SCT025 OVC035
      TEMPO 2607/2611 3SM -SHRA BR BKN008 OVC015
     FM261500 14012G18KT 6SM -RA BR SCT025 OVC035
     FM261700 13015G35KT 5SM -RA BR SCT010 OVC025 WS020/14045KT
     FM270500 13012G20KT 6SM -RA BR SCT015 OVC025 WS020/15030KT
      AMD LTD TO CLD VIS AND WIND TIL 261500=

USA.gov is the U.S. government's official web portal to all federal, state and local government web resources and services.